• Join FlightAware (Why Join?)
  • Login
  • US Flag 
04:03AM EDT


 

Airport Tracker/Info


-or-


 

Live Flight TrackerFlight Track Log ✈ CTL22 ✈ 13-May-2013 ✈ KBKL - KGRR

Flight Track Log - Related Links

Times and Time Zones

All times are in EDT time to prevent confusion due to time zone crossing. See the CTL22 flight status page for this flight to view local times or setup timezone preferences in your user account.

Time Position Orientation Groundspeed Altitude Reporting Facility
EDT Latitude Longitude Course Direction KTS MPH feet Rate Location/Type
09:21PM 41.7406 -81.8297 297° West 126 145 6,100  Level Cleveland Center
09:22PM 41.7567 -81.8775 294° West 141 162 6,000 -60 Descending Cleveland Center
09:23PM 41.7750 -81.9225 299° West 141 162 6,000  Level Cleveland Center
09:24PM 41.7869 -81.9672 290° West 141 162 6,000  Level Cleveland Center
09:25PM 41.8050 -82.0150 297° West 141 162 6,100  Climbing Cleveland Center
09:26PM 41.7384 -82.2711 297° West  Level Estimated
09:26PM 41.8211 -82.0656 293° West 141 162 6,000  Level Cleveland Center
09:27PM 41.8350 -82.1131 291° West 141 162 6,000  Level Cleveland Center
09:28PM 41.8531 -82.1636 296° West 141 162 6,000  Level Cleveland Center
09:29PM 41.8669 -82.2142 290° West 146 168 6,000  Level Cleveland Center
09:30PM 41.8808 -82.2647 290° West 146 168 6,100 60 Climbing Cleveland Center
09:30PM 41.8911 -82.2819 309° West 142 163 6,100  Level Cleveland Center
09:31PM 41.8969 -82.3128 284° West 146 168 6,100  Level Cleveland Center
09:32PM 41.9169 -82.3633 298° West 146 168 6,100  Level Cleveland Center
09:33PM 41.9350 -82.4086 298° West 151 174 6,100 -60 Level Cleveland Center
09:34PM 41.9508 -82.4567 294° West 151 174 6,000  Descending Cleveland Center
09:35PM 41.9667 -82.5072 293° West 151 174 6,100  Climbing Cleveland Center
09:36PM 41.9825 -82.5581 293° West 151 174 6,100  Level Cleveland Center
09:37PM 42.0006 -82.6061 297° West 151 174 6,100  Level Cleveland Center
09:38PM 42.0142 -82.6511 292° West 148 170 6,100  Level Cleveland Center
09:39PM 42.0342 -82.7050 297° West 151 174 6,100  Level Cleveland Center
09:40PM 42.0500 -82.7503 295° West 147 169 6,100  Level Cleveland Center
09:41PM 42.0656 -82.8039 291° West 147 169 6,100  Level Cleveland Center
09:42PM 42.0811 -82.8578 291° West 148 170 6,100  Level Cleveland Center
09:43PM 42.1031 -82.9144 298° West 150 173 6,100  Level Cleveland Center
09:44PM 42.1186 -82.9653 292° West 151 174 6,100 -60 Level Cleveland Center
09:45PM 42.1364 -83.0192 294° West 150 173 6,000  Descending Cleveland Center
09:46PM 42.1581 -83.0761 297° West 152 175 6,100  Climbing Cleveland Center
09:47PM 42.1797 -83.1358 296° West 152 175 6,100  Level Cleveland Center
09:48PM 42.1950 -83.1981 288° West 152 175 6,100  Level Cleveland Center
09:49PM 42.2147 -83.2439 300° West 151 174 6,100  Level Cleveland Center
09:50PM 42.2322 -83.2978 294° West 153 176 6,100  Level Cleveland Center
09:51PM 42.2475 -83.3575 289° West 152 175 6,100  Level Cleveland Center
09:52PM 42.2569 -83.3914 291° West 147 169 6,200  Climbing Cleveland Center
09:53PM 42.2806 -83.4569 296° West 158 182 6,100 -60 Descending Cleveland Center
09:54PM 42.2958 -83.5111 291° West 153 176 6,100  Level Cleveland Center
09:55PM 42.3131 -83.5625 294° West 154 177 6,100  Level Cleveland Center
09:56PM 42.3325 -83.6194 295° West 157 181 6,100 -60 Level Cleveland Center
09:57PM 42.3481 -83.6681 293° West 155 178 6,000  Descending Cleveland Center
09:58PM 42.3672 -83.7281 293° West 155 178 6,100  Climbing Cleveland Center
09:59PM 42.3783 -83.7736 288° West 154 177 6,100  Level Cleveland Center
10:00PM 42.3997 -83.8336 296° West 156 180 6,100 -60 Level Cleveland Center
10:02PM 42.4406 -83.9339 299° West 156 180 6,000  Descending Chicago Center
10:03PM 42.4606 -83.9883 296° West 158 182 6,100  Climbing Chicago Center
10:04PM 42.4808 -84.0414 297° West 158 182 6,100  Level Chicago Center
10:05PM 42.4978 -84.0953 293° West 157 181 6,100 -60 Level Chicago Center
10:07PM 42.5119 -84.1489 290° West 154 177 6,000 -60 Descending Chicago Center
10:08PM 42.5281 -84.2042 292° West 156 180 6,000  Level Chicago Center
10:09PM 42.5433 -84.2594 291° West 157 181 6,000  Level Chicago Center
10:10PM 42.5592 -84.3128 292° West 153 176 6,000  Level Chicago Center
10:11PM 42.5769 -84.3658 294° West 155 178 6,000  Level Chicago Center
10:12PM 42.5967 -84.4278 293° West 151 174 6,000  Level Chicago Center
10:13PM 42.6119 -84.4825 291° West 154 177 6,000  Level Chicago Center
10:14PM 42.6289 -84.5350 294° West 154 177 6,000  Level Chicago Center
10:15PM 42.6447 -84.5872 292° West 151 174 6,100  Climbing Chicago Center
10:16PM 42.6519 -84.6439 280° West 153 176 6,000 -60 Descending Chicago Center
10:17PM 42.6631 -84.6986 285° West 152 175 6,000  Level Chicago Center
10:18PM 42.6828 -84.7486 298° West 151 174 6,000  Level Chicago Center
10:19PM 42.6969 -84.8022 290° West 151 174 6,100  Climbing Chicago Center
10:20PM 42.7100 -84.8556 288° West 150 173 6,000 -360 Descending Chicago Center
10:21PM 42.7281 -84.9236 290° West 158 182 5,400 -600 Descending Chicago Center
10:22PM 42.7422 -84.9822 288° West 163 188 4,800 -720 Descending Chicago Center
10:23PM 42.7558 -85.0414 287° West 164 189 4,000 -840 Descending Chicago Center
10:24PM 42.7708 -85.1025 289° West 168 193 3,200 -720 Descending Chicago Center
10:25PM 42.7856 -85.1647 288° West 171 197 2,600 -420 Descending Chicago Center
10:26PM 42.8011 -85.2272 289° West 174 200 2,400 -60 Descending Chicago Center
10:27PM 42.8178 -85.2858 291° West 171 197 2,500 -120 Climbing Chicago Center
10:28PM 42.8356 -85.3425 293° West 166 191 2,200 -300 Descending Chicago Center
10:29PM 42.8528 -85.4022 291° West 167 192 2,000 -540 Descending Chicago Center
10:30PM 42.8736 -85.4750 291° West 170 196 1,200 -660 Descending Chicago Center
10:31PM 42.8792 -85.5114 282° West 148 170 700 -540 Descending Chicago Center
10:33PM 42.8667 -85.5167 270° West  Level FlightAware Approximate